Hovedside
METAR-TAF:

METAR-TAF

Lufthavner :

Vitebsk, Hviterussland

breddegrad: 55-10N, lengdegrad: 030-13E, høyde over havet: 176 m

Gjeldene værobservasjon

Denne rapporten ble laget for 12 timer og 53 minutter siden, klokken 16:00 UTC
Vind 6 kt fra Sør
Temperatur 12°C
Luftfuktighet 62%
Trykk 1027 hPa
Sikt 10 km eller mer
Få skyer i en høyde av 1600 ft

METAR: UMII 151600Z 18003MPS 9999 FEW016 12/05 Q1027 R23/D NOSIG

Tid: 07:53 (04:53 UTC)

Varsel

Denne rapporten ble laget for 14 timer og 43 minutter siden, klokken 14:10 UTC
Varsel gyldig fra 15. klokken 15 UTC til 15. klokken 24 UTC
Vind 10 kt fra Sør-sørvest
Sikt 10 km eller mer
Spredte skyer i en høyde av 2000 ft
Midlertidig
fra 15. klokken 15 UTC til 15. klokken 24 UTC
Sikt: 1000 m
Brutte skyer i en høyde av 300 ft
dis

TAF: UMII 151410Z 1515/1524 21005MPS 9999 SCT020 TEMPO 1515/1524 1000 BR BKN003

Værobservasjoner og værvarsel for over 4000 flyplasser (METAR- og TAF-rapporter).

Tilgjengelige stasjoner er representert av de røde og gule prikkene på kartet.

Hold musepekeren over prikken for å se navnet på stasjonen.

Klikk så for å se værobservasjoner og -varsler.

For å forandre kartet kan du klikke på den grønne knappen med svart kryss for å zoome inn, på den grønne knappen med strek for å zoome ut, eller på de grønne pilene for å se tilstøtende kart.


METAR-TAF: